Time;durP1;ratioP1;P1;durP2;ratioP2;P2;SDS_P1;SDS_P2;PMS_P1;PMS_P2;Temp;Humidity;BMP_temperature;BMP_pressure;BME280_temperature;BME280_humidity;BME280_pressure;Samples;Min_cycle;Max_cycle;Signal;HPM_P1;HPM_P2
2021/10/09 00:00:25;;;;;;;35.88;24.55;;;;;;;10.86;83.74;102949.91;5033198;28;20033;-50
2021/10/09 00:02:50;;;;;;;27.30;22.92;;;;;;;10.85;83.84;102949.03;5033020;28;20503;-47
2021/10/09 00:05:16;;;;;;;36.80;25.05;;;;;;;10.87;83.63;102946.19;5033157;28;20029;-48
2021/10/09 00:07:41;;;;;;;32.67;24.02;;;;;;;10.88;83.50;102946.09;5032955;28;20029;-50
2021/10/09 00:10:07;;;;;;;29.83;23.30;;;;;;;10.83;83.56;102948.31;5033095;28;20040;-48
2021/10/09 00:12:33;;;;;;;28.92;23.50;;;;;;;10.80;83.90;102945.03;5032613;28;20083;-48
2021/10/09 00:15:01;;;;;;;27.42;23.50;;;;;;;10.81;84.06;102941.34;5032927;28;20423;-50
2021/10/09 00:17:28;;;;;;;29.02;23.10;;;;;;;10.86;83.83;102945.34;5032914;28;20400;-48
2021/10/09 00:19:54;;;;;;;34.08;23.55;;;;;;;10.81;83.78;102944.03;5033354;28;20093;-47
2021/10/09 00:22:19;;;;;;;29.90;23.80;;;;;;;10.79;83.85;102937.94;5032865;28;20033;-47
2021/10/09 00:24:44;;;;;;;33.55;24.85;;;;;;;10.80;84.01;102945.03;5032926;28;20042;-47
2021/10/09 00:27:10;;;;;;;31.02;24.55;;;;;;;10.77;84.28;102940.78;5032870;28;20079;-45
2021/10/09 00:29:35;;;;;;;31.90;25.00;;;;;;;10.74;84.22;102941.00;5032880;28;20397;-47
2021/10/09 00:32:01;;;;;;;33.05;24.60;;;;;;;10.72;84.26;102943.84;5029095;28;20385;-45
2021/10/09 00:34:26;;;;;;;31.10;24.75;;;;;;;10.67;84.20;102940.69;5032428;28;20037;-46
2021/10/09 00:36:51;;;;;;;34.33;23.98;;;;;;;10.68;84.28;102937.00;5032816;28;20556;-47
2021/10/09 00:39:17;;;;;;;29.45;24.92;;;;;;;10.67;84.57;102945.25;5032637;28;20419;-46
2021/10/09 00:41:43;;;;;;;36.58;26.25;;;;;;;10.62;84.46;102942.09;5032379;28;20422;-47
2021/10/09 00:44:12;;;;;;;32.80;26.33;;;;;;;10.58;84.77;102941.47;5014841;28;20052;-46
2021/10/09 00:46:39;;;;;;;33.15;24.08;;;;;;;10.60;84.71;102933.28;5032910;28;20029;-48
2021/10/09 00:49:05;;;;;;;35.50;25.50;;;;;;;10.65;84.79;102942.66;5032533;28;20104;-48
2021/10/09 00:51:30;;;;;;;31.65;24.80;;;;;;;10.60;84.64;102939.50;5032394;28;20033;-47
2021/10/09 00:53:59;;;;;;;35.55;26.63;;;;;;;10.60;84.85;102947.59;5031964;28;20031;-47
2021/10/09 00:56:27;;;;;;;35.78;26.17;;;;;;;10.56;84.87;102940.78;5032183;28;20072;-45
2021/10/09 00:58:54;;;;;;;35.88;26.77;;;;;;;10.54;85.04;102940.03;5031234;28;20059;-47
2021/10/09 01:01:19;;;;;;;38.83;26.83;;;;;;;10.53;85.11;102946.38;5032228;28;20022;-46
2021/10/09 01:03:47;;;;;;;36.58;26.27;;;;;;;10.47;85.34;102938.84;5030758;28;20574;-48
2021/10/09 01:06:12;;;;;;;36.17;27.38;;;;;;;10.49;85.39;102931.50;5029720;28;20433;-48
2021/10/09 01:08:38;;;;;;;35.97;27.80;;;;;;;10.46;85.34;102932.59;5031802;28;20068;-47
2021/10/09 01:11:03;;;;;;;38.80;27.10;;;;;;;10.47;85.31;102936.16;5032316;28;20495;-47
2021/10/09 01:13:28;;;;;;;39.17;27.98;;;;;;;10.48;85.36;102932.50;5030773;28;20082;-47
2021/10/09 01:15:54;;;;;;;40.33;26.27;;;;;;;10.45;85.50;102930.91;5032056;28;20472;-47
2021/10/09 01:18:20;;;;;;;35.08;26.83;;;;;;;10.43;85.46;102937.41;5032155;28;20101;-48
2021/10/09 01:21:02;;;;;;;37.15;27.40;;;;;;;10.41;85.46;102934.00;5032242;28;20104;-47
2021/10/09 01:23:28;;;;;;;36.70;28.67;;;;;;;10.41;85.63;102931.28;5032380;28;20053;-46
2021/10/09 01:25:53;;;;;;;35.60;26.52;;;;;;;10.40;85.75;102926.88;5034898;28;20044;-46
2021/10/09 01:28:19;;;;;;;36.05;28.10;;;;;;;10.32;85.78;102923.03;5035951;28;20033;-48
2021/10/09 01:30:44;;;;;;;37.40;27.75;;;;;;;10.32;85.73;102928.41;5034749;28;20021;-47
2021/10/09 01:33:10;;;;;;;36.03;27.48;;;;;;;10.32;85.91;102928.41;5037113;28;20104;-46
2021/10/09 01:35:52;;;;;;;35.95;26.98;;;;;;;10.31;85.90;102926.66;5047196;28;20357;-46
2021/10/09 01:38:19;;;;;;;39.33;27.05;;;;;;;10.28;85.85;102926.09;5035877;28;20465;-46
2021/10/09 01:40:45;;;;;;;36.90;28.10;;;;;;;10.27;86.12;102922.53;5035990;28;20034;-46
2021/10/09 01:43:12;;;;;;;36.17;26.90;;;;;;;10.26;85.95;102923.47;5035763;28;20060;-47
2021/10/09 01:45:38;;;;;;;37.03;28.75;;;;;;;10.20;86.26;102929.38;5036158;28;20051;-49
2021/10/09 01:48:03;;;;;;;38.90;28.52;;;;;;;10.18;86.57;102917.88;5035740;28;20488;-49
2021/10/09 01:50:29;;;;;;;39.92;28.10;;;;;;;10.21;86.41;102917.63;5035556;28;20041;-47
2021/10/09 01:52:54;;;;;;;43.08;29.25;;;;;;;10.15;86.21;102918.16;5035591;28;20033;-46
2021/10/09 01:55:20;;;;;;;43.80;29.63;;;;;;;10.15;86.51;102912.78;5035422;28;20060;-48
2021/10/09 01:57:45;;;;;;;36.72;29.35;;;;;;;10.07;86.98;102920.63;5035601;28;20032;-48
2021/10/09 02:00:11;;;;;;;40.85;29.38;;;;;;;10.04;86.83;102915.50;5035493;28;20028;-48
2021/10/09 02:02:36;;;;;;;37.47;28.05;;;;;;;10.00;86.98;102914.03;5035293;28;20042;-46
2021/10/09 02:05:03;;;;;;;40.08;30.80;;;;;;;9.99;87.27;102912.34;5035653;28;20029;-46
2021/10/09 02:07:28;;;;;;;37.63;28.88;;;;;;;9.94;87.35;102909.19;5032917;28;20048;-47
2021/10/09 02:09:54;;;;;;;37.67;28.80;;;;;;;9.89;87.40;102907.72;5035047;28;20475;-47
2021/10/09 02:12:19;;;;;;;43.38;30.45;;;;;;;9.88;87.09;102907.84;5035070;28;20484;-47
2021/10/09 02:14:50;;;;;;;40.65;29.83;;;;;;;9.87;87.75;102914.19;5035299;28;20472;-47
2021/10/09 02:25:29;;;;;;;38.70;28.88;;;;;;;9.86;86.97;102907.97;5035086;28;20095;-46
2021/10/09 02:27:57;;;;;;;42.63;30.08;;;;;;;9.84;87.10;102903.69;5035170;28;20365;-47
2021/10/09 02:30:23;;;;;;;41.92;29.13;;;;;;;9.81;87.23;102904.81;5035005;28;20029;-47
2021/10/09 02:32:49;;;;;;;49.85;30.98;;;;;;;9.80;87.17;102900.41;5034867;28;20036;-47
2021/10/09 02:35:14;;;;;;;42.10;30.00;;;;;;;9.76;87.42;102896.25;5034583;28;20029;-46
2021/10/09 02:37:40;;;;;;;45.53;31.48;;;;;;;9.77;87.04;102892.63;5034837;28;20032;-46
2021/10/09 02:40:05;;;;;;;43.20;30.95;;;;;;;9.79;86.76;102895.16;5034641;28;20040;-46
2021/10/09 02:42:31;;;;;;;45.78;30.48;;;;;;;9.77;86.96;102898.00;5034673;28;20029;-47
2021/10/09 02:44:56;;;;;;;45.65;30.90;;;;;;;9.81;87.18;102894.06;5034664;28;20037;-47
2021/10/09 02:47:21;;;;;;;42.85;29.80;;;;;;;9.81;87.07;102887.81;5034604;28;20037;-46
2021/10/09 02:49:47;;;;;;;42.90;30.40;;;;;;;9.78;87.02;102888.94;5035734;28;20079;-46
2021/10/09 02:52:12;;;;;;;45.50;30.38;;;;;;;9.78;87.18;102888.94;5045702;28;20029;-45
2021/10/09 02:54:38;;;;;;;44.10;29.45;;;;;;;9.84;87.09;102882.19;5034288;28;20029;-45
2021/10/09 02:57:03;;;;;;;48.80;31.15;;;;;;;9.78;87.28;102888.94;5034488;28;20052;-46
2021/10/09 02:59:29;;;;;;;48.33;31.40;;;;;;;9.72;87.63;102881.38;5034377;28;20030;-47
2021/10/09 03:01:54;;;;;;;48.63;34.30;;;;;;;9.66;87.95;102892.63;5034169;28;20132;-46
2021/10/09 03:04:19;;;;;;;48.85;34.38;;;;;;;9.68;87.96;102893.34;5034221;28;20022;-47
2021/10/09 03:06:45;;;;;;;50.88;33.67;;;;;;;9.66;88.15;102892.63;5034354;28;20036;-49
2021/10/09 03:09:10;;;;;;;51.42;33.45;;;;;;;9.61;88.28;102889.44;5034192;28;20476;-47
2021/10/09 03:11:35;;;;;;;51.25;34.35;;;;;;;9.64;88.50;102889.22;5034135;28;20496;-49
2021/10/09 03:14:01;;;;;;;47.00;32.95;;;;;;;9.66;88.18;102888.13;5034046;28;20074;-47
2021/10/09 03:16:26;;;;;;;49.33;32.97;;;;;;;9.73;87.83;102888.44;5034056;28;20079;-47
2021/10/09 03:18:52;;;;;;;48.42;32.85;;;;;;;9.69;87.84;102892.38;5033918;28;20476;-47
2021/10/09 03:21:17;;;;;;;43.38;30.92;;;;;;;9.71;87.52;102893.09;5034111;28;20481;-49
2021/10/09 03:23:42;;;;;;;46.17;32.67;;;;;;;9.76;87.42;102893.56;5033950;28;20030;-47
2021/10/09 03:26:08;;;;;;;48.45;32.17;;;;;;;9.79;87.65;102895.16;5033933;28;20392;-49
2021/10/09 03:28:33;;;;;;;48.78;31.98;;;;;;;9.80;87.55;102891.50;5033880;28;20037;-48
2021/10/09 03:30:58;;;;;;;42.08;30.77;;;;;;;9.74;87.54;102889.31;5032470;28;20077;-46
2021/10/09 03:33:24;;;;;;;49.38;32.63;;;;;;;9.73;87.67;102885.75;5033681;28;20057;-47
2021/10/09 03:35:49;;;;;;;48.50;33.50;;;;;;;9.68;87.59;102883.44;5033657;28;20131;-46
2021/10/09 03:38:14;;;;;;;47.92;32.70;;;;;;;9.72;88.05;102889.44;5031260;28;20029;-50
2021/10/09 03:40:43;;;;;;;53.38;31.98;;;;;;;9.75;87.96;102883.81;5031833;28;20036;-48
2021/10/09 03:43:12;;;;;;;47.97;32.38;;;;;;;9.77;87.92;102879.16;5033386;28;20393;-47
2021/10/09 03:53:31;;;;;;;49.38;33.38;;;;;;;9.68;87.96;102877.22;5032809;28;20048;-47
2021/10/09 03:55:57;;;;;;;53.80;33.75;;;;;;;9.69;88.34;102884.31;5033182;28;20022;-46
2021/10/09 03:58:22;;;;;;;48.25;32.55;;;;;;;9.70;87.68;102879.78;5032566;28;20036;-50
2021/10/09 04:00:47;;;;;;;53.08;33.33;;;;;;;9.70;87.90;102880.66;5033150;28;20033;-49
2021/10/09 04:03:13;;;;;;;54.38;33.80;;;;;;;9.68;87.98;102883.44;5017086;28;20045;-47
2021/10/09 04:05:38;;;;;;;49.05;33.83;;;;;;;9.70;88.09;102880.66;5013454;28;20369;-46
2021/10/09 04:08:07;;;;;;;52.10;32.70;;;;;;;9.65;87.99;102882.84;5011993;28;20429;-46
2021/10/09 04:10:37;;;;;;;51.35;33.72;;;;;;;9.58;88.46;102887.00;5013544;28;20057;-48
2021/10/09 04:13:02;;;;;;;47.13;33.40;;;;;;;9.58;88.41;102881.63;5030360;28;20029;-47
2021/10/09 04:15:28;;;;;;;50.70;32.70;;;;;;;9.53;88.67;102878.47;5032850;28;20091;-49
2021/10/09 04:17:54;;;;;;;47.78;33.20;;;;;;;9.53;88.38;102890.09;5029616;28;20033;-49
2021/10/09 04:20:19;;;;;;;47.83;32.75;;;;;;;9.58;88.35;102884.31;5025525;28;20022;-47
2021/10/09 04:22:44;;;;;;;51.60;33.72;;;;;;;9.52;88.49;102871.41;5024610;28;20029;-47
2021/10/09 04:25:10;;;;;;;59.17;33.83;;;;;;;9.55;88.46;102876.53;5033187;28;20044;-49
2021/10/09 04:27:37;;;;;;;52.10;32.85;;;;;;;9.55;88.04;102874.69;5032568;28;20124;-48
2021/10/09 04:30:04;;;;;;;50.67;32.25;;;;;;;9.53;88.26;102879.34;5030929;28;20029;-47
2021/10/09 04:32:29;;;;;;;48.22;34.28;;;;;;;9.47;88.26;102874.44;5030208;28;20025;-48
2021/10/09 04:34:55;;;;;;;48.95;33.45;;;;;;;9.54;88.55;102875.66;5035175;28;20044;-47
2021/10/09 04:37:20;;;;;;;51.55;34.25;;;;;;;9.47;88.21;102868.22;5049681;28;20040;-48
2021/10/09 04:39:45;;;;;;;48.70;32.65;;;;;;;9.42;88.39;102872.13;5030828;28;20437;-47
2021/10/09 04:42:11;;;;;;;47.42;34.40;;;;;;;9.43;88.51;102871.16;5028102;28;20451;-47
2021/10/09 04:44:36;;;;;;;52.47;32.92;;;;;;;9.34;88.35;102869.22;5029841;28;20687;-47
2021/10/09 04:47:01;;;;;;;49.47;33.90;;;;;;;9.35;88.78;102870.94;5029596;28;20500;-46
2021/10/09 04:49:27;;;;;;;52.67;33.90;;;;;;;9.33;88.66;102870.22;5029720;28;20374;-46
2021/10/09 04:51:52;;;;;;;50.08;33.33;;;;;;;9.34;89.00;102868.38;5029576;28;20030;-45
2021/10/09 04:54:17;;;;;;;50.92;32.45;;;;;;;9.34;88.82;102871.91;5029757;28;20030;-46
2021/10/09 04:56:43;;;;;;;47.22;32.08;;;;;;;9.31;88.55;102869.47;5029554;28;20040;-46
2021/10/09 04:59:08;;;;;;;51.28;34.03;;;;;;;9.21;88.98;102865.81;5029637;28;20061;-46
2021/10/09 05:01:33;;;;;;;49.78;33.35;;;;;;;9.26;88.94;102863.59;5011621;28;20030;-47
2021/10/09 05:03:59;;;;;;;53.60;34.15;;;;;;;9.25;88.99;102863.75;5029347;28;20484;-46
2021/10/09 05:06:24;;;;;;;49.90;33.13;;;;;;;9.23;89.14;102871.91;5029558;28;20029;-45
2021/10/09 05:08:50;;;;;;;57.95;33.85;;;;;;;9.27;89.17;102868.03;5029400;28;20036;-46
2021/10/09 05:11:19;;;;;;;54.63;33.20;;;;;;;9.21;88.76;102865.81;5029427;28;20069;-49
2021/10/09 05:13:44;;;;;;;50.17;32.33;;;;;;;9.19;88.87;102865.09;5029424;28;20037;-47
2021/10/09 05:16:09;;;;;;;52.30;34.28;;;;;;;9.17;89.10;102861.69;5028427;28;20645;-46
2021/10/09 05:18:35;;;;;;;52.33;32.80;;;;;;;9.12;89.08;102871.94;5029452;28;20097;-47
2021/10/09 05:21:00;;;;;;;51.95;33.95;;;;;;;9.12;89.36;102874.63;5029397;28;20041;-46
2021/10/09 05:23:27;;;;;;;52.28;33.40;;;;;;;9.13;89.00;102860.19;5029499;28;20029;-46
2021/10/09 05:25:53;;;;;;;50.78;33.22;;;;;;;9.02;89.57;102871.81;5029177;28;20013;-47
2021/10/09 05:28:23;;;;;;;52.40;33.28;;;;;;;9.07;89.04;102866.06;5029094;28;20056;-45
2021/10/09 05:30:48;;;;;;;51.30;33.28;;;;;;;9.09;88.96;102874.88;5029426;28;20033;-44
2021/10/09 05:35:48;;;;;;;56.28;34.15;;;;;;;9.06;88.79;102875.09;5029158;28;20124;-45
2021/10/09 05:38:14;;;;;;;52.38;33.30;;;;;;;8.99;89.47;102869.38;5028985;28;20084;-45
2021/10/09 05:40:39;;;;;;;47.33;32.90;;;;;;;8.99;89.11;102880.97;5028946;28;20033;-45
2021/10/09 05:43:06;;;;;;;53.30;32.30;;;;;;;9.00;89.58;102881.81;5028917;28;20037;-47
2021/10/09 05:45:33;;;;;;;52.47;32.05;;;;;;;8.98;89.28;102879.25;5025096;28;20072;-46
2021/10/09 05:47:58;;;;;;;51.65;32.35;;;;;;;8.97;89.38;102880.22;5009134;28;20029;-49
2021/10/09 05:50:28;;;;;;;54.88;34.05;;;;;;;8.94;89.32;102879.63;5009193;28;20468;-45
2021/10/09 05:56:54;;;;;;;49.20;32.85;;;;;;;8.94;89.08;102883.16;4999996;28;20034;-43
2021/10/09 06:01:33;;;;;;;49.55;31.98;;;;;;;8.85;89.31;102878.53;5036975;28;20042;-46
2021/10/09 07:00:21;;;;;;;42.55;28.27;;;;;;;9.81;86.16;102926.31;5011911;28;20099;-48
2021/10/09 07:02:46;;;;;;;39.15;28.10;;;;;;;9.86;85.76;102924.09;5038887;28;20506;-47
2021/10/09 07:05:14;;;;;;;41.72;27.65;;;;;;;9.87;85.66;102928.53;5019612;28;20062;-46
2021/10/09 07:07:49;;;;;;;42.08;29.80;;;;;;;9.96;86.13;102939.50;5012587;28;20100;-49
2021/10/09 07:10:14;;;;;;;39.50;28.33;;;;;;;9.96;84.99;102934.97;5019275;28;20034;-49
2021/10/09 07:12:40;;;;;;;34.85;25.95;;;;;;;10.02;84.93;102933.59;5034261;28;20484;-49
2021/10/09 07:15:07;;;;;;;38.45;26.48;;;;;;;10.07;85.54;102928.69;5032682;28;20464;-51
2021/10/09 07:17:33;;;;;;;37.35;27.42;;;;;;;10.07;84.91;102944.84;5034239;28;20083;-48
2021/10/09 07:19:59;;;;;;;41.83;27.65;;;;;;;10.14;84.60;102943.38;5033911;28;20101;-49
2021/10/09 07:22:24;;;;;;;40.08;27.73;;;;;;;10.16;84.00;102946.75;5033832;28;20040;-48
2021/10/09 07:24:50;;;;;;;42.95;26.00;;;;;;;10.24;83.82;102933.53;5033968;28;20102;-49
2021/10/09 07:27:15;;;;;;;42.92;28.15;;;;;;;10.24;83.66;102938.94;5033987;28;20025;-48
2021/10/09 07:29:41;;;;;;;33.30;26.42;;;;;;;10.27;83.65;102937.81;5034056;28;20029;-49
2021/10/09 07:32:06;;;;;;;35.55;26.95;;;;;;;10.20;83.47;102942.84;5033843;28;20100;-48
2021/10/09 07:34:32;;;;;;;45.50;28.20;;;;;;;10.21;83.37;102941.00;5033667;28;20111;-50
2021/10/09 07:36:57;;;;;;;35.00;26.20;;;;;;;10.42;83.48;102952.69;5033709;28;20504;-47
2021/10/09 07:39:22;;;;;;;35.92;26.45;;;;;;;10.62;82.45;102947.47;5033683;28;20037;-47
2021/10/09 07:41:51;;;;;;;36.50;25.80;;;;;;;10.76;81.90;102949.81;5033476;28;20026;-49
2021/10/09 07:44:20;;;;;;;33.58;24.25;;;;;;;11.12;81.75;102956.56;5033462;28;20087;-48
2021/10/09 07:46:46;;;;;;;32.63;24.02;;;;;;;11.67;79.04;102944.59;5033675;28;20488;-47
2021/10/09 07:49:11;;;;;;;30.55;23.13;;;;;;;12.17;78.76;102953.53;5033524;28;20113;-46
2021/10/09 07:51:36;;;;;;;36.10;23.63;;;;;;;12.84;76.43;102962.56;5033471;28;20461;-48
2021/10/09 07:54:04;;;;;;;29.27;22.77;;;;;;;13.73;74.22;102954.03;5033349;28;20029;-48
2021/10/09 07:56:29;;;;;;;28.55;21.30;;;;;;;14.53;68.69;102961.44;5033518;28;20387;-48
2021/10/09 07:58:54;;;;;;;26.13;20.45;;;;;;;15.44;68.15;102967.31;5033348;28;20100;-46
2021/10/09 08:01:20;;;;;;;25.35;20.13;;;;;;;16.00;65.02;102959.56;5032816;28;20025;-49
2021/10/09 08:03:46;;;;;;;25.83;20.90;;;;;;;16.26;63.94;102961.31;5013499;28;20061;-49
2021/10/09 08:06:11;;;;;;;28.17;21.95;;;;;;;16.36;64.18;102957.44;5013630;28;20022;-51
2021/10/09 08:08:37;;;;;;;23.58;20.90;;;;;;;17.17;61.06;102961.13;5013772;28;20485;-50
2021/10/09 08:11:02;;;;;;;24.55;21.92;;;;;;;18.01;57.35;102969.66;5012942;28;20030;-48
2021/10/09 08:13:27;;;;;;;24.90;22.13;;;;;;;18.30;56.91;102963.50;5013860;28;20516;-51
2021/10/09 08:15:53;;;;;;;27.38;22.83;;;;;;;18.74;55.96;102970.13;5013199;28;20397;-48
2021/10/09 08:18:18;;;;;;;27.65;22.25;;;;;;;18.12;56.04;102965.69;5013580;28;20073;-47
2021/10/09 08:20:46;;;;;;;24.65;21.25;;;;;;;18.70;55.45;102968.81;5013431;28;20044;-48
2021/10/09 08:23:24;;;;;;;;;;;;;;;19.50;53.03;102973.59;5013432;28;20030;-51
2021/10/09 08:36:51;;;;;;;26.70;22.92;;;;;;;18.75;54.12;102967.25;5011983;28;20125;-50
2021/10/09 08:39:17;;;;;;;27.08;21.67;;;;;;;19.41;52.82;102975.59;5012569;28;20029;-50
2021/10/09 08:41:43;;;;;;;31.63;22.20;;;;;;;20.14;50.76;102962.00;5011361;28;20088;-52
2021/10/09 08:44:09;;;;;;;26.75;22.63;;;;;;;19.94;52.06;102972.72;5012655;28;20061;-52
2021/10/09 08:46:34;;;;;;;27.25;22.60;;;;;;;20.57;49.90;102968.34;5012863;28;20056;-49
2021/10/09 08:48:59;;;;;;;27.20;21.55;;;;;;;20.79;48.61;102968.31;5012926;28;20057;-50
2021/10/09 08:51:27;;;;;;;23.90;20.48;;;;;;;20.48;48.87;102974.97;5012835;28;20025;-48
2021/10/09 08:53:55;;;;;;;32.15;21.95;;;;;;;20.16;50.52;102965.38;5012659;28;20092;-49
2021/10/09 08:56:33;;;;;;;34.40;23.02;;;;;;;18.68;52.68;102971.72;5012667;28;20030;-48
2021/10/09 08:59:24;;;;;;;29.58;22.30;;;;;;;18.40;54.45;102968.69;5012507;28;20112;-48
2021/10/09 09:02:14;;;;;;;32.45;23.33;;;;;;;17.91;54.99;102969.03;5017086;28;20164;-50
2021/10/09 09:07:49;;;;;;;29.95;22.10;;;;;;;17.06;58.15;102966.91;5032394;28;20021;-49
2021/10/09 09:39:43;;;;;;;34.47;24.55;;;;;;;15.33;64.67;102960.31;5048439;28;20550;-47
2021/10/09 09:42:09;;;;;;;32.53;23.90;;;;;;;15.52;64.07;102956.50;5029414;28;20475;-47
2021/10/09 09:44:36;;;;;;;44.40;25.27;;;;;;;15.38;64.72;102954.41;5029273;28;20040;-48
2021/10/09 09:47:08;;;;;;;36.15;24.63;;;;;;;15.05;66.26;102956.94;5032545;28;20036;-49
2021/10/09 09:49:34;;;;;;;36.15;24.48;;;;;;;15.24;65.43;102953.13;5022835;28;20033;-48
2021/10/09 09:52:00;;;;;;;38.55;25.75;;;;;;;15.39;64.03;102950.69;5031262;28;20026;-46
2021/10/09 09:54:30;;;;;;;33.50;23.10;;;;;;;15.34;63.30;102955.75;5032316;28;20029;-47
2021/10/09 09:56:57;;;;;;;34.17;23.63;;;;;;;15.26;64.51;102955.69;5016287;28;20060;-49
2021/10/09 09:59:27;;;;;;;34.97;23.63;;;;;;;15.23;64.09;102947.91;5012566;28;20030;-47
2021/10/09 10:01:53;;;;;;;35.25;24.30;;;;;;;15.10;64.19;102949.16;5011897;28;20061;-48
2021/10/09 10:04:19;;;;;;;35.65;25.05;;;;;;;15.24;65.21;102949.56;5028314;28;20532;-48
2021/10/09 10:06:44;;;;;;;34.50;25.00;;;;;;;15.10;65.74;102949.16;5061591;28;20087;-48
2021/10/09 10:09:10;;;;;;;33.03;24.67;;;;;;;15.60;65.24;102944.84;5030988;28;20021;-49
2021/10/09 10:11:35;;;;;;;36.33;24.42;;;;;;;15.74;64.36;102941.50;5030551;28;20084;-46
2021/10/09 10:14:01;;;;;;;34.45;25.35;;;;;;;16.02;63.64;102944.81;5031876;28;20072;-47
2021/10/09 10:16:27;;;;;;;34.58;23.02;;;;;;;16.22;62.55;102944.53;5030697;28;20032;-51
2021/10/09 10:18:53;;;;;;;38.65;24.90;;;;;;;16.29;61.32;102941.97;5032210;28;20120;-48
2021/10/09 10:21:31;;;;;;;38.15;24.30;;;;;;;16.19;61.81;102937.56;5032100;28;20068;-47
2021/10/09 10:23:56;;;;;;;36.70;25.42;;;;;;;16.03;62.51;102937.50;5032155;28;20029;-48
2021/10/09 10:26:33;;;;;;;44.63;25.70;;;;;;;16.09;62.87;102936.00;5025328;28;20055;-47
2021/10/09 10:28:58;;;;;;;35.63;24.55;;;;;;;15.92;63.82;102943.25;5031994;28;20061;-50
2021/10/09 10:31:26;;;;;;;37.25;25.15;;;;;;;15.75;63.69;102929.66;5031606;28;20464;-49
2021/10/09 10:33:59;;;;;;;;;;;;;;;15.74;64.14;102946.09;5037554;28;20082;-48
2021/10/09 10:36:36;;;;;;;41.30;24.98;;;;;;;15.68;64.27;102949.44;5036721;28;19917;-46
2021/10/09 10:39:02;;;;;;;37.45;25.40;;;;;;;15.70;65.14;102942.88;5031530;28;20032;-50
2021/10/09 10:41:59;;;;;;;39.47;24.40;;;;;;;15.77;64.79;102949.34;5031426;28;20089;-48
2021/10/09 10:53:19;;;;;;;37.95;25.30;;;;;;;15.91;63.91;102937.00;5051400;28;20052;-47
2021/10/09 10:56:07;;;;;;;31.23;23.88;;;;;;;15.83;62.33;102933.41;5050973;28;20067;-48
2021/10/09 10:58:32;;;;;;;34.45;24.20;;;;;;;15.88;64.38;102929.19;5050908;28;20037;-45
2021/10/09 11:01:20;;;;;;;32.05;23.77;;;;;;;15.85;62.78;102926.81;5018863;28;20483;-47
2021/10/09 11:03:50;;;;;;;29.90;22.98;;;;;;;15.83;62.49;102945.13;5043541;28;20099;-48
2021/10/09 11:06:17;;;;;;;33.97;24.10;;;;;;;15.33;62.84;102933.19;5049497;28;20024;-48
2021/10/09 11:08:44;;;;;;;33.35;24.80;;;;;;;15.33;63.22;102938.63;5050940;28;20025;-48
2021/10/09 11:11:10;;;;;;;31.27;24.40;;;;;;;15.19;64.21;102935.66;5051100;28;20059;-48
2021/10/09 11:13:35;;;;;;;35.03;23.52;;;;;;;15.25;64.31;102945.88;5050760;28;20479;-47
2021/10/09 11:16:03;;;;;;;36.65;24.95;;;;;;;15.28;64.09;102940.97;5049470;28;20033;-49
2021/10/09 11:18:28;;;;;;;36.63;25.48;;;;;;;15.28;64.30;102945.53;5033633;28;20036;-46
2021/10/09 11:21:03;;;;;;;35.60;25.00;;;;;;;15.49;64.72;102942.41;5019163;28;20022;-48
2021/10/09 11:23:28;;;;;;;33.10;24.40;;;;;;;15.57;64.43;102937.03;5042797;28;20057;-49
2021/10/09 11:25:54;;;;;;;39.63;25.45;;;;;;;15.67;64.19;102934.19;5030732;28;20499;-51
2021/10/09 11:28:32;;;;;;;37.80;23.92;;;;;;;15.90;64.49;102935.28;5030765;28;20026;-48
2021/10/09 11:30:58;;;;;;;33.85;26.00;;;;;;;15.91;63.34;102934.28;5030563;28;20053;-46
2021/10/09 11:33:24;;;;;;;37.33;25.33;;;;;;;15.70;63.88;102945.59;5030751;28;20395;-48
2021/10/09 11:35:50;;;;;;;34.35;25.15;;;;;;;15.97;63.95;102939.03;5029209;28;20157;-50
2021/10/09 11:38:22;;;;;;;37.45;25.35;;;;;;;16.25;61.84;102927.88;5030523;28;20544;-48
2021/10/09 11:45:47;;;;;;;40.72;26.13;;;;;;;17.02;59.69;102931.06;5035324;28;20428;-51
2021/10/09 11:53:47;;;;;;;31.65;24.70;;;;;;;18.00;58.07;102929.81;5050083;28;20051;-50
2021/10/09 11:56:14;;;;;;;36.35;24.23;;;;;;;18.54;55.71;102929.75;5030174;28;20091;-51
2021/10/09 11:59:02;;;;;;;32.30;23.38;;;;;;;19.43;52.29;102935.31;5029945;28;20105;-49
2021/10/09 12:01:28;;;;;;;27.02;21.08;;;;;;;20.31;51.15;102938.00;5031163;28;20021;-50
2021/10/09 12:03:54;;;;;;;26.92;22.08;;;;;;;20.45;49.72;102938.97;5037011;28;20460;-48
2021/10/09 12:06:19;;;;;;;30.50;23.17;;;;;;;19.85;50.82;102936.47;5031743;28;20108;-52
2021/10/09 12:08:53;;;;;;;33.75;24.30;;;;;;;18.94;52.33;102932.28;5031063;28;20072;-48
2021/10/09 12:11:19;;;;;;;27.60;20.95;;;;;;;18.85;53.27;102928.78;5032059;28;20499;-49
2021/10/09 12:13:53;;;;;;;34.30;23.93;;;;;;;18.43;54.04;102930.16;5025980;28;20136;-48
2021/10/09 12:16:42;;;;;;;34.53;24.73;;;;;;;17.32;57.80;102926.75;5017039;28;20471;-48
2021/10/09 12:19:11;;;;;;;36.38;24.27;;;;;;;17.44;58.72;102924.47;5018534;28;20034;-50
2021/10/09 12:21:57;;;;;;;30.80;25.48;;;;;;;17.50;58.92;102912.84;5027001;28;20031;-49
2021/10/09 12:24:25;;;;;;;33.92;24.35;;;;;;;18.03;56.64;102918.53;5030578;28;20487;-50
2021/10/09 12:27:15;;;;;;;34.50;24.58;;;;;;;18.40;55.04;102912.31;5032464;28;20048;-52
2021/10/09 12:30:05;;;;;;;28.25;22.40;;;;;;;18.72;53.59;102913.03;5033105;28;20122;-49
2021/10/09 12:32:41;;;;;;;29.95;21.63;;;;;;;19.98;50.49;102907.59;5031941;28;20041;-49
2021/10/09 12:35:11;;;;;;;29.63;22.58;;;;;;;20.16;50.69;102897.03;5031624;28;20033;-49
2021/10/09 12:37:38;;;;;;;33.95;23.55;;;;;;;20.07;49.27;102906.44;5032232;28;20029;-48
2021/10/09 12:40:16;;;;;;;30.00;22.58;;;;;;;20.32;49.38;102899.50;5032487;28;20022;-49
2021/10/09 12:42:49;;;;;;;26.98;20.60;;;;;;;21.40;47.77;102899.22;5031393;28;20099;-49
2021/10/09 12:45:15;;;;;;;29.00;21.55;;;;;;;21.90;46.10;102897.03;5032078;28;20507;-51
2021/10/09 12:47:42;;;;;;;31.02;23.10;;;;;;;21.85;45.79;102899.56;5012618;28;20029;-49
2021/10/09 12:50:07;;;;;;;26.13;21.20;;;;;;;22.06;45.73;102893.91;5012868;28;20038;-51
2021/10/09 12:52:33;;;;;;;27.75;21.55;;;;;;;21.47;45.95;102900.09;5013022;28;20037;-49
2021/10/09 12:54:59;;;;;;;25.17;19.27;;;;;;;21.56;46.35;102895.28;5012206;28;20022;-51
2021/10/09 12:57:25;;;;;;;28.03;22.90;;;;;;;21.32;46.68;102893.88;5012150;28;20026;-51
2021/10/09 12:59:50;;;;;;;32.22;19.02;;;;;;;21.79;46.65;102884.81;5012704;28;20303;-50
2021/10/09 13:02:15;;;;;;;30.33;22.67;;;;;;;21.53;46.35;102890.22;5013303;28;20057;-48
2021/10/09 13:04:41;;;;;;;34.08;22.95;;;;;;;20.33;49.13;102881.22;5032293;28;20025;-49
2021/10/09 13:07:07;;;;;;;29.30;21.70;;;;;;;20.37;49.52;102877.88;5032224;28;20034;-49
2021/10/09 13:09:32;;;;;;;31.15;23.20;;;;;;;20.50;49.81;102879.03;5032622;28;20373;-50
2021/10/09 13:12:00;;;;;;;29.77;23.38;;;;;;;19.93;50.72;102881.69;5031902;28;20366;-50
2021/10/09 13:14:26;;;;;;;30.52;20.95;;;;;;;21.02;48.08;102875.84;5031897;28;20040;-49
2021/10/09 13:16:51;;;;;;;27.38;21.83;;;;;;;21.04;47.35;102875.66;5031586;28;20413;-49
2021/10/09 13:19:17;;;;;;;30.30;21.73;;;;;;;20.78;48.56;102876.34;5033767;28;20113;-49
2021/10/09 13:21:42;;;;;;;32.65;22.77;;;;;;;20.74;48.26;102870.38;5034715;28;20033;-51
2021/10/09 13:24:08;;;;;;;26.92;21.20;;;;;;;21.35;47.08;102871.56;5036145;28;20045;-49
2021/10/09 13:26:34;;;;;;;34.85;23.88;;;;;;;21.10;48.34;102860.28;5036103;28;20048;-52
2021/10/09 13:29:00;;;;;;;31.65;21.42;;;;;;;21.70;47.80;102864.97;5035007;28;20025;-50
2021/10/09 13:31:26;;;;;;;30.58;20.67;;;;;;;21.69;46.30;102863.25;5036140;28;20083;-50
2021/10/09 13:33:52;;;;;;;30.55;20.88;;;;;;;21.55;47.32;102867.03;5035945;28;20021;-50
2021/10/09 13:36:18;;;;;;;32.60;21.45;;;;;;;21.81;46.06;102865.41;5035360;28;20104;-50